Time;durP1;ratioP1;P1;durP2;ratioP2;P2;SDS_P1;SDS_P2;PMS_P1;PMS_P2;Temp;Humidity;BMP_temperature;BMP_pressure;BME280_temperature;BME280_humidity;BME280_pressure;Samples;Min_cycle;Max_cycle;Signal;HPM_P1;HPM_P2
2023/12/15 00:01:34;;;;;;;5.28;1.38;;;27.10;99.90;;;;;;5070080;28;20233;-75
2023/12/15 00:04:05;;;;;;;8.68;2.08;;;27.00;99.90;;;;;;5070724;28;20203;-74
2023/12/15 00:06:36;;;;;;;8.45;2.00;;;26.90;99.90;;;;;;5068750;28;20239;-75
2023/12/15 00:09:09;;;;;;;6.45;1.40;;;26.90;99.90;;;;;;5064314;28;20192;-75
2023/12/15 00:11:39;;;;;;;7.18;1.67;;;26.80;99.90;;;;;;5066399;28;20200;-75
2023/12/15 00:14:10;;;;;;;5.88;1.48;;;26.70;99.90;;;;;;5068741;28;20219;-75
2023/12/15 00:16:41;;;;;;;8.98;1.60;;;26.90;99.90;;;;;;5066725;28;20234;-74
2023/12/15 00:19:12;;;;;;;6.32;1.58;;;26.70;99.90;;;;;;5061081;28;20196;-75
2023/12/15 00:21:42;;;;;;;7.97;1.80;;;26.90;99.90;;;;;;5068010;28;20224;-75
2023/12/15 00:24:15;;;;;;;8.82;1.77;;;27.00;99.90;;;;;;5062802;28;20196;-74
2023/12/15 00:26:46;;;;;;;7.30;1.52;;;27.20;99.90;;;;;;5070073;28;20270;-74
2023/12/15 00:29:17;;;;;;;6.63;1.90;;;27.30;99.90;;;;;;5068835;28;20192;-75
2023/12/15 00:31:48;;;;;;;8.43;1.88;;;27.30;99.90;;;;;;5070095;28;20226;-77
2023/12/15 00:34:19;;;;;;;6.65;1.75;;;27.60;99.90;;;;;;5070087;28;20196;-76
2023/12/15 00:36:50;;;;;;;12.02;2.10;;;27.60;99.90;;;;;;5067897;28;20203;-74
2023/12/15 00:39:22;;;;;;;8.05;1.70;;;27.70;99.90;;;;;;5067879;28;20278;-74
2023/12/15 00:41:53;;;;;;;5.35;1.23;;;27.70;99.90;;;;;;5061667;28;20224;-74
2023/12/15 00:44:24;;;;;;;8.70;1.65;;;27.60;99.90;;;;;;5049970;28;20274;-76
2023/12/15 00:46:55;;;;;;;8.27;1.70;;;27.60;99.90;;;;;;5050046;28;20203;-75
2023/12/15 00:49:26;;;;;;;5.82;1.60;;;27.70;99.90;;;;;;5055338;28;20196;-74
2023/12/15 00:51:57;;;;;;;6.97;1.73;;;27.80;99.90;;;;;;5068174;28;20202;-75
2023/12/15 00:54:30;;;;;;;6.00;1.50;;;27.90;99.90;;;;;;5072038;28;20216;-75
2023/12/15 00:57:01;;;;;;;9.35;1.98;;;27.80;99.90;;;;;;5068561;28;20210;-75
2023/12/15 00:59:31;;;;;;;7.53;1.60;;;27.70;99.90;;;;;;5054913;28;20283;-75
2023/12/15 01:02:03;;;;;;;7.20;1.60;;;27.70;99.90;;;;;;5069603;28;20224;-75
2023/12/15 01:04:35;;;;;;;10.00;1.90;;;27.70;99.90;;;;;;5059543;28;20193;-75
2023/12/15 01:07:05;;;;;;;5.80;1.42;;;27.60;99.90;;;;;;5058262;28;20259;-76
2023/12/15 01:09:38;;;;;;;9.70;1.90;;;27.60;99.90;;;;;;5070035;28;20203;-77
2023/12/15 01:12:09;;;;;;;5.93;1.60;;;27.90;99.90;;;;;;5070111;28;20204;-75
2023/12/15 01:14:40;;;;;;;8.70;1.65;;;27.90;99.90;;;;;;5065694;28;20594;-76
2023/12/15 01:17:11;;;;;;;8.50;1.77;;;27.90;99.90;;;;;;5060058;28;20220;-76
2023/12/15 01:19:41;;;;;;;6.60;1.80;;;27.70;99.90;;;;;;5049828;28;20227;-75
2023/12/15 01:22:12;;;;;;;8.48;1.83;;;27.90;99.90;;;;;;5065593;28;20228;-75
2023/12/15 01:24:45;;;;;;;6.22;1.52;;;27.80;99.90;;;;;;5069497;28;20564;-76
2023/12/15 01:27:16;;;;;;;7.53;1.67;;;27.80;99.90;;;;;;5069910;28;20192;-76
2023/12/15 01:29:46;;;;;;;6.20;2.00;;;27.90;99.90;;;;;;5070389;28;20204;-75
2023/12/15 01:32:17;;;;;;;7.63;1.55;;;28.10;99.90;;;;;;5071944;28;20211;-75
2023/12/15 01:34:48;;;;;;;9.75;2.10;;;28.20;99.90;;;;;;5073483;28;20556;-77
2023/12/15 01:37:19;;;;;;;8.13;1.85;;;28.00;99.90;;;;;;5068686;28;20193;-76
2023/12/15 01:39:51;;;;;;;6.30;1.67;;;28.10;99.90;;;;;;5057167;28;20660;-76
2023/12/15 01:42:22;;;;;;;8.98;2.03;;;27.90;99.90;;;;;;5062303;28;20233;-76
2023/12/15 01:44:53;;;;;;;6.90;1.70;;;27.90;99.90;;;;;;5063934;28;20201;-76
2023/12/15 01:47:24;;;;;;;7.72;1.73;;;27.90;99.90;;;;;;5059886;28;20192;-76
2023/12/15 01:49:56;;;;;;;8.77;1.73;;;27.90;99.90;;;;;;5073908;28;20282;-76
2023/12/15 01:52:27;;;;;;;6.03;1.73;;;27.80;99.90;;;;;;5069914;28;20192;-75
2023/12/15 01:54:59;;;;;;;6.30;1.80;;;27.80;99.90;;;;;;5072932;28;20200;-76
2023/12/15 01:57:30;;;;;;;5.88;1.88;;;27.90;99.90;;;;;;5070987;28;20226;-76
2023/12/15 02:00:06;;;;;;;5.97;1.67;;;27.80;99.90;;;;;;5073036;28;20279;-76
2023/12/15 02:02:37;;;;;;;9.27;2.00;;;27.80;99.90;;;;;;5060820;28;20262;-77
2023/12/15 02:05:08;;;;;;;6.75;1.65;;;28.00;99.90;;;;;;5057163;28;20542;-76
2023/12/15 02:07:39;;;;;;;13.02;2.08;;;28.20;99.90;;;;;;5067191;28;20215;-76
2023/12/15 02:10:12;;;;;;;11.50;2.00;;;28.30;99.90;;;;;;5070261;28;20192;-76
2023/12/15 02:12:43;;;;;;;8.23;1.60;;;28.30;99.90;;;;;;5067052;28;20282;-76
2023/12/15 02:15:14;;;;;;;5.30;1.55;;;28.20;99.90;;;;;;5068576;28;20652;-76
2023/12/15 02:17:45;;;;;;;6.20;1.75;;;28.00;99.90;;;;;;5064917;28;20220;-77
2023/12/15 02:20:16;;;;;;;9.32;1.83;;;28.00;99.90;;;;;;5065275;28;20212;-77
2023/12/15 02:22:49;;;;;;;10.80;2.05;;;28.00;99.90;;;;;;5075423;28;20693;-76
2023/12/15 02:25:20;;;;;;;8.48;1.90;;;27.80;99.90;;;;;;5070367;28;20684;-76
2023/12/15 02:27:50;;;;;;;7.65;1.58;;;27.70;99.90;;;;;;5072893;28;20200;-76
2023/12/15 02:30:21;;;;;;;10.10;1.98;;;27.80;99.90;;;;;;5071274;28;20199;-76
2023/12/15 02:32:53;;;;;;;9.35;1.80;;;27.70;99.90;;;;;;5072287;28;20206;-76
2023/12/15 02:35:23;;;;;;;9.95;1.88;;;27.60;99.90;;;;;;5069782;28;20202;-76
2023/12/15 02:37:56;;;;;;;12.10;1.75;;;27.80;99.90;;;;;;5064245;28;20279;-77
2023/12/15 02:40:27;;;;;;;4.72;1.40;;;27.60;99.90;;;;;;5072113;28;20196;-76
2023/12/15 02:42:58;;;;;;;6.90;1.60;;;27.70;99.90;;;;;;5071546;28;20226;-77
2023/12/15 02:45:28;;;;;;;9.32;1.83;;;27.60;99.90;;;;;;5071766;28;20674;-76
2023/12/15 02:47:59;;;;;;;4.80;1.50;;;27.70;99.90;;;;;;5060272;28;20199;-77
2023/12/15 02:50:30;;;;;;;7.72;1.90;;;27.80;99.90;;;;;;5084850;28;20201;-77
2023/12/15 02:53:03;;;;;;;5.47;1.67;;;27.90;99.90;;;;;;5078790;28;20196;-78
2023/12/15 02:55:33;;;;;;;7.85;1.70;;;28.10;99.90;;;;;;5068603;28;20192;-78
2023/12/15 02:58:04;;;;;;;6.15;1.73;;;28.10;99.90;;;;;;5070257;28;20628;-79
2023/12/15 03:00:38;;;;;;;10.50;2.10;;;28.10;99.90;;;;;;5068710;28;20213;-77
2023/12/15 03:03:09;;;;;;;7.47;1.90;;;28.10;99.90;;;;;;5051611;28;20200;-76
2023/12/15 03:05:40;;;;;;;9.43;1.75;;;28.10;99.90;;;;;;5060292;28;20694;-76
2023/12/15 03:08:13;;;;;;;6.93;1.75;;;28.20;99.90;;;;;;5064297;28;20195;-77
2023/12/15 03:10:43;;;;;;;8.52;1.88;;;28.30;99.90;;;;;;5067751;28;20189;-77
2023/12/15 03:13:14;;;;;;;9.55;1.83;;;28.30;99.90;;;;;;5067946;28;20628;-78
2023/12/15 03:15:45;;;;;;;6.80;1.73;;;28.20;99.90;;;;;;5051074;28;20299;-79
2023/12/15 03:18:16;;;;;;;7.70;1.90;;;27.90;99.90;;;;;;5051363;28;20338;-76
2023/12/15 03:20:47;;;;;;;8.32;1.88;;;28.00;99.90;;;;;;5051562;28;20184;-76
2023/12/15 03:23:20;;;;;;;6.45;1.55;;;27.90;99.90;;;;;;5055845;28;20199;-76
2023/12/15 03:25:51;;;;;;;8.45;2.10;;;28.10;99.90;;;;;;5066949;28;20228;-76
2023/12/15 03:28:22;;;;;;;9.00;2.00;;;28.10;99.90;;;;;;5069490;28;20274;-76
2023/12/15 03:30:53;;;;;;;5.78;1.70;;;28.20;99.90;;;;;;5070349;28;20214;-77
2023/12/15 03:33:26;;;;;;;8.35;1.70;;;28.30;99.90;;;;;;5051014;28;20786;-76
2023/12/15 03:35:56;;;;;;;7.25;1.65;;;28.40;99.90;;;;;;5061298;28;20207;-77
2023/12/15 03:38:29;;;;;;;8.93;1.70;;;28.20;99.90;;;;;;5063598;28;20198;-77
2023/12/15 03:41:00;;;;;;;6.38;1.50;;;28.10;99.90;;;;;;5069087;28;20200;-77
2023/12/15 03:43:31;;;;;;;8.45;1.77;;;28.20;99.90;;;;;;5060200;28;20199;-77
2023/12/15 03:46:02;;;;;;;9.50;1.80;;;28.30;99.90;;;;;;5072119;28;20681;-75
2023/12/15 03:48:33;;;;;;;10.82;2.17;;;28.20;99.90;;;;;;5080071;28;20300;-75
2023/12/15 03:51:03;;;;;;;9.35;1.80;;;28.10;99.90;;;;;;5081552;28;20192;-76
2023/12/15 03:53:36;;;;;;;7.97;1.88;;;28.10;99.90;;;;;;5090205;28;20230;-76
2023/12/15 03:56:07;;;;;;;6.10;1.85;;;28.10;99.90;;;;;;5074692;28;20203;-76
2023/12/15 03:58:38;;;;;;;8.68;1.95;;;28.00;99.90;;;;;;5071770;28;20206;-75
2023/12/15 04:01:09;;;;;;;6.15;1.48;;;28.10;99.90;;;;;;5069937;28;20677;-76
2023/12/15 04:03:40;;;;;;;10.43;1.88;;;28.20;99.90;;;;;;5071230;28;20287;-76
2023/12/15 04:06:11;;;;;;;8.20;1.73;;;28.30;99.90;;;;;;5064961;28;20198;-77
2023/12/15 04:08:45;;;;;;;11.95;1.80;;;28.20;99.90;;;;;;5055857;28;20201;-78
2023/12/15 04:11:19;;;;;;;7.13;1.67;;;28.30;99.90;;;;;;5050806;28;20196;-76
2023/12/15 04:13:50;;;;;;;7.25;1.50;;;28.30;99.90;;;;;;5056783;28;20209;-75
2023/12/15 04:16:21;;;;;;;7.65;1.75;;;28.20;99.90;;;;;;5054557;28;20220;-76
2023/12/15 04:18:51;;;;;;;7.35;1.70;;;28.20;99.90;;;;;;5050677;28;20218;-78
2023/12/15 04:21:22;;;;;;;5.93;1.52;;;28.30;99.90;;;;;;5056942;28;20225;-78
2023/12/15 04:23:55;;;;;;;6.65;1.60;;;28.40;99.90;;;;;;5064939;28;20204;-78
2023/12/15 04:26:25;;;;;;;7.05;1.85;;;28.40;99.90;;;;;;5069916;28;20199;-78
2023/12/15 04:28:56;;;;;;;13.02;1.80;;;28.10;99.90;;;;;;5055929;28;20200;-79
2023/12/15 04:31:28;;;;;;;7.72;1.85;;;28.10;99.90;;;;;;5065048;28;20200;-79
2023/12/15 04:33:59;;;;;;;7.57;1.60;;;28.00;99.90;;;;;;5067641;28;20547;-77
2023/12/15 04:36:30;;;;;;;8.23;2.05;;;27.90;99.90;;;;;;5068560;28;20191;-78
2023/12/15 04:39:03;;;;;;;5.97;1.63;;;27.90;99.90;;;;;;5070489;28;20225;-78
2023/12/15 04:41:34;;;;;;;12.98;2.00;;;27.90;99.90;;;;;;5058389;28;20294;-78
2023/12/15 04:44:05;;;;;;;9.27;1.60;;;28.10;99.90;;;;;;5070656;28;20562;-80
2023/12/15 04:46:36;;;;;;;6.70;1.73;;;28.20;99.90;;;;;;5057781;28;20216;-79
2023/12/15 04:49:08;;;;;;;7.55;1.77;;;28.50;99.90;;;;;;5054515;28;20202;-80
2023/12/15 04:51:39;;;;;;;7.47;1.80;;;28.40;99.90;;;;;;5070389;28;20216;-80
2023/12/15 04:54:12;;;;;;;6.00;1.70;;;28.40;99.90;;;;;;5067644;28;20195;-79
2023/12/15 04:56:44;;;;;;;7.97;1.55;;;28.60;99.90;;;;;;5085814;28;20282;-79
2023/12/15 04:59:15;;;;;;;5.47;1.60;;;28.70;99.90;;;;;;5069759;28;20200;-79
2023/12/15 05:01:47;;;;;;;6.95;2.00;;;28.60;99.90;;;;;;5050326;28;20217;-79
2023/12/15 05:04:18;;;;;;;6.57;1.85;;;28.70;99.90;;;;;;5056824;28;20651;-79
2023/12/15 05:06:49;;;;;;;7.00;1.85;;;28.80;99.90;;;;;;5063176;28;20635;-80
2023/12/15 05:09:22;;;;;;;7.30;1.92;;;28.80;99.90;;;;;;5063534;28;20343;-79
2023/12/15 05:11:53;;;;;;;5.32;1.65;;;28.80;99.90;;;;;;5069480;28;20303;-79
2023/12/15 05:14:23;;;;;;;7.53;1.85;;;28.90;99.90;;;;;;5066974;28;20216;-79
2023/12/15 05:16:54;;;;;;;8.50;2.22;;;28.70;99.90;;;;;;5068288;28;20231;-79
2023/12/15 05:19:25;;;;;;;6.07;1.58;;;28.70;99.90;;;;;;5055146;28;20284;-79
2023/12/15 05:21:56;;;;;;;7.43;1.67;;;28.90;99.90;;;;;;5066531;28;20230;-79
2023/12/15 05:24:34;;;;;;;11.68;2.05;;;29.00;99.90;;;;;;5087123;28;20240;-78
2023/12/15 05:27:05;;;;;;;7.25;1.67;;;28.90;99.90;;;;;;5059209;28;20581;-81
2023/12/15 05:29:42;;;;;;;8.25;1.77;;;28.80;99.90;;;;;;5065157;28;20204;-79
2023/12/15 05:32:13;;;;;;;9.50;2.17;;;28.70;99.90;;;;;;5072347;28;20274;-79
2023/12/15 05:34:44;;;;;;;7.53;2.03;;;29.00;99.90;;;;;;5079762;28;20322;-79
2023/12/15 05:37:15;;;;;;;7.50;1.60;;;29.30;99.90;;;;;;5066575;28;20275;-78
2023/12/15 05:39:48;;;;;;;6.47;1.77;;;29.30;99.90;;;;;;5067289;28;20203;-78
2023/12/15 05:42:20;;;;;;;6.00;1.70;;;29.40;99.90;;;;;;5073023;28;20263;-77
2023/12/15 05:44:50;;;;;;;6.22;1.80;;;29.50;99.90;;;;;;5069378;28;20299;-77
2023/12/15 05:47:21;;;;;;;6.65;1.95;;;29.50;99.90;;;;;;5069665;28;20687;-78
2023/12/15 05:49:53;;;;;;;9.85;2.03;;;29.50;99.90;;;;;;5073026;28;20210;-78
2023/12/15 05:52:25;;;;;;;13.95;1.98;;;29.60;99.90;;;;;;5067444;28;20189;-78
2023/12/15 05:54:57;;;;;;;6.40;1.60;;;29.50;99.90;;;;;;5072358;28;20195;-77
2023/12/15 05:57:28;;;;;;;11.68;1.70;;;29.40;99.90;;;;;;5057586;28;20192;-79
2023/12/15 05:59:59;;;;;;;10.10;2.08;;;29.60;99.90;;;;;;5064227;28;20271;-81
2023/12/15 06:02:30;;;;;;;7.72;1.75;;;30.00;99.90;;;;;;5071289;28;20628;-78
2023/12/15 06:05:01;;;;;;;6.43;1.70;;;30.40;99.90;;;;;;5071051;28;20195;-77
2023/12/15 06:07:33;;;;;;;5.20;1.50;;;30.60;99.90;;;;;;5072153;28;20275;-78
2023/12/15 06:10:06;;;;;;;9.65;2.22;;;31.10;99.90;;;;;;5068155;28;20203;-78
2023/12/15 06:12:37;;;;;;;7.38;1.60;;;31.30;99.90;;;;;;5065665;28;20287;-77
2023/12/15 06:15:11;;;;;;;7.68;1.90;;;31.20;99.90;;;;;;5071781;28;20212;-78
2023/12/15 06:17:42;;;;;;;6.60;1.80;;;31.10;99.90;;;;;;5052469;28;20228;-78
2023/12/15 06:20:15;;;;;;;8.77;1.77;;;31.20;99.90;;;;;;5070812;28;20655;-78
2023/12/15 06:22:45;;;;;;;5.75;1.70;;;31.00;99.90;;;;;;5066782;28;20841;-78
2023/12/15 06:25:18;;;;;;;5.85;1.63;;;31.10;99.90;;;;;;5066824;28;20742;-79
2023/12/15 06:27:52;;;;;;;7.20;1.58;;;31.00;99.90;;;;;;5058327;28;20195;-78
2023/12/15 06:30:23;;;;;;;8.55;1.65;;;30.80;99.90;;;;;;5065618;28;20224;-78
2023/12/15 06:32:54;;;;;;;8.13;2.13;;;31.10;99.90;;;;;;5064062;28;20200;-78
2023/12/15 06:35:25;;;;;;;14.57;2.08;;;31.20;99.90;;;;;;5053977;28;20216;-78
2023/12/15 06:37:55;;;;;;;8.13;2.30;;;31.10;99.90;;;;;;5072998;28;20191;-78
2023/12/15 06:40:28;;;;;;;6.68;1.70;;;31.40;99.90;;;;;;5071558;28;20286;-78
2023/12/15 06:42:59;;;;;;;11.20;2.03;;;31.40;99.90;;;;;;5066566;28;20310;-78
2023/12/15 06:45:30;;;;;;;12.95;2.38;;;31.50;99.90;;;;;;5071868;28;20192;-78
2023/12/15 06:48:01;;;;;;;9.10;2.53;;;31.60;99.90;;;;;;5061247;28;20212;-78
2023/12/15 06:50:31;;;;;;;9.30;2.10;;;31.80;99.90;;;;;;5069159;28;20330;-78
2023/12/15 06:53:02;;;;;;;6.15;2.10;;;32.30;99.90;;;;;;5057129;28;20275;-78
2023/12/15 06:55:35;;;;;;;7.55;1.90;;;32.50;99.90;;;;;;5083774;28;20228;-77
2023/12/15 06:58:06;;;;;;;10.65;2.17;;;32.80;99.90;;;;;;5064575;28;20304;-76
2023/12/15 07:00:37;;;;;;;8.13;2.00;;;33.20;99.90;;;;;;5055697;28;20675;-77
2023/12/15 07:03:08;;;;;;;5.50;1.70;;;33.10;99.90;;;;;;5065006;28;20224;-76
2023/12/15 07:05:39;;;;;;;7.80;1.90;;;33.20;99.90;;;;;;5070312;28;20195;-78
2023/12/15 07:08:10;;;;;;;8.75;2.00;;;32.60;99.90;;;;;;5068112;28;20768;-79
2023/12/15 07:10:43;;;;;;;8.25;2.15;;;32.50;99.90;;;;;;5070540;28;20632;-78
2023/12/15 07:13:14;;;;;;;7.70;1.88;;;32.50;99.90;;;;;;5052012;28;20201;-77
2023/12/15 07:15:48;;;;;;;9.55;2.30;;;32.70;99.90;;;;;;5063241;28;20921;-77
2023/12/15 07:18:19;;;;;;;5.70;1.80;;;32.90;99.90;;;;;;5068482;28;20192;-78
2023/12/15 07:20:49;;;;;;;7.75;1.70;;;32.90;99.90;;;;;;5060354;28;20634;-77
2023/12/15 07:23:20;;;;;;;6.43;1.90;;;33.00;99.50;;;;;;5064249;28;20230;-77
2023/12/15 07:25:53;;;;;;;5.75;1.70;;;33.10;99.40;;;;;;5071360;28;20600;-77
2023/12/15 07:28:24;;;;;;;9.18;2.13;;;33.10;99.20;;;;;;5066510;28;20246;-77
2023/12/15 07:30:55;;;;;;;7.03;1.70;;;33.30;98.90;;;;;;5056519;28;20192;-77
2023/12/15 07:33:25;;;;;;;8.48;2.00;;;33.30;98.00;;;;;;5051507;28;20193;-77
2023/12/15 07:35:56;;;;;;;6.15;1.80;;;33.60;97.40;;;;;;5059758;28;20275;-77
2023/12/15 07:38:28;;;;;;;9.80;1.85;;;33.60;97.80;;;;;;5067661;28;20283;-77
2023/12/15 07:41:01;;;;;;;5.55;1.92;;;33.70;96.30;;;;;;5057092;28;20280;-77
2023/12/15 07:43:31;;;;;;;9.13;2.05;;;33.50;96.70;;;;;;5070984;28;20223;-77
2023/12/15 07:46:02;;;;;;;8.00;1.83;;;32.70;97.60;;;;;;5070149;28;20259;-77
2023/12/15 07:48:33;;;;;;;9.13;2.38;;;32.30;98.60;;;;;;5053326;28;20785;-78
2023/12/15 07:51:04;;;;;;;8.65;2.03;;;31.90;99.60;;;;;;5069443;28;20206;-77
2023/12/15 07:53:35;;;;;;;7.68;1.85;;;31.80;99.90;;;;;;5055352;28;20203;-77
2023/12/15 07:56:08;;;;;;;6.50;1.67;;;31.30;99.90;;;;;;5050724;28;20196;-79
2023/12/15 07:58:39;;;;;;;10.18;2.10;;;30.50;99.90;;;;;;5067921;28;20314;-77
2023/12/15 08:01:11;;;;;;;10.20;2.38;;;30.10;99.90;;;;;;5072294;28;20200;-77
2023/12/15 08:03:42;;;;;;;9.38;2.00;;;29.60;99.90;;;;;;5074014;28;20277;-77
2023/12/15 08:06:14;;;;;;;7.07;1.88;;;29.20;99.90;;;;;;5051479;28;20199;-77
2023/12/15 08:08:46;;;;;;;10.20;2.28;;;28.90;99.90;;;;;;5065413;28;20200;-76
2023/12/15 08:11:19;;;;;;;6.72;2.00;;;28.60;99.90;;;;;;5070976;28;20957;-76
2023/12/15 08:13:50;;;;;;;8.13;1.90;;;28.30;99.90;;;;;;5067692;28;20227;-76
2023/12/15 08:16:21;;;;;;;9.50;2.00;;;28.00;99.90;;;;;;5050911;28;20251;-77
2023/12/15 08:18:52;;;;;;;10.65;2.15;;;27.80;99.90;;;;;;5074056;28;20200;-77
2023/12/15 08:21:23;;;;;;;8.55;2.03;;;27.60;99.90;;;;;;5065496;28;20220;-76
2023/12/15 08:23:53;;;;;;;10.57;2.30;;;27.40;99.90;;;;;;5057716;28;20298;-76
2023/12/15 08:26:28;;;;;;;9.35;1.98;;;27.40;99.90;;;;;;5058558;28;20296;-77
2023/12/15 08:28:59;;;;;;;6.25;1.95;;;27.30;99.90;;;;;;5050019;28;20207;-77
2023/12/15 08:31:30;;;;;;;14.02;2.40;;;27.20;99.90;;;;;;5050140;28;20193;-78
2023/12/15 08:34:01;;;;;;;8.82;2.03;;;27.10;99.90;;;;;;5050305;28;20232;-77
2023/12/15 08:36:32;;;;;;;6.68;2.00;;;27.10;99.90;;;;;;5058680;28;20258;-79
2023/12/15 08:39:02;;;;;;;8.20;2.10;;;27.10;99.90;;;;;;5067681;28;20196;-79
2023/12/15 08:41:35;;;;;;;11.18;2.00;;;27.00;99.90;;;;;;5070401;28;20246;-77
2023/12/15 08:44:06;;;;;;;11.13;2.40;;;27.00;99.90;;;;;;5054207;28;20228;-78
2023/12/15 08:46:37;;;;;;;7.25;1.88;;;27.00;99.90;;;;;;5072436;28;20196;-78
2023/12/15 08:49:08;;;;;;;10.00;2.42;;;26.90;99.90;;;;;;5073796;28;20481;-78
2023/12/15 08:51:39;;;;;;;11.52;2.17;;;26.80;99.90;;;;;;5064606;28;20196;-79
2023/12/15 08:54:10;;;;;;;7.05;1.92;;;26.60;99.90;;;;;;5062565;28;20204;-79
2023/12/15 08:56:42;;;;;;;7.68;2.13;;;26.60;99.90;;;;;;5069453;28;20235;-79
2023/12/15 08:59:13;;;;;;;10.90;2.22;;;26.60;99.90;;;;;;5074326;28;20203;-80
2023/12/15 09:01:44;;;;;;;9.10;2.40;;;26.60;99.90;;;;;;5058731;28;20603;-80
2023/12/15 09:04:15;;;;;;;6.57;2.10;;;26.50;99.90;;;;;;5054695;28;20758;-79
2023/12/15 09:06:46;;;;;;;9.20;2.00;;;26.50;99.90;;;;;;5054417;28;20201;-80
2023/12/15 09:09:17;;;;;;;8.55;2.03;;;26.40;99.90;;;;;;5061647;28;20280;-79
2023/12/15 09:11:49;;;;;;;7.25;2.17;;;26.40;99.90;;;;;;5057263;28;20200;-80
2023/12/15 09:14:21;;;;;;;10.20;2.10;;;26.40;99.90;;;;;;5053128;28;20204;-79
2023/12/15 09:16:52;;;;;;;7.93;2.00;;;26.30;99.90;;;;;;5072695;28;20268;-79
2023/12/15 09:19:23;;;;;;;9.13;2.20;;;26.20;99.90;;;;;;5072670;28;20250;-80
2023/12/15 09:21:54;;;;;;;7.80;2.05;;;26.30;99.90;;;;;;5076160;28;20659;-81
2023/12/15 09:24:25;;;;;;;10.73;2.50;;;26.20;99.90;;;;;;5073721;28;20220;-79
2023/12/15 09:26:57;;;;;;;9.55;2.47;;;26.20;99.90;;;;;;5071200;28;20201;-80
2023/12/15 09:29:28;;;;;;;10.23;2.10;;;26.20;99.90;;;;;;5073959;28;20232;-79
2023/12/15 09:31:59;;;;;;;10.13;2.20;;;26.10;99.90;;;;;;5072504;28;20192;-81
2023/12/15 09:34:30;;;;;;;11.02;1.98;;;26.10;99.90;;;;;;5070116;28;20261;-81
2023/12/15 09:37:01;;;;;;;9.07;2.03;;;26.10;99.90;;;;;;5054948;28;20615;-81
2023/12/15 09:39:31;;;;;;;7.80;2.15;;;26.10;99.90;;;;;;5072903;28;20286;-81
2023/12/15 09:42:04;;;;;;;6.75;2.00;;;26.00;99.90;;;;;;5086829;28;20270;-81
2023/12/15 09:44:35;;;;;;;8.45;2.13;;;26.00;99.90;;;;;;5074011;28;20262;-81
2023/12/15 09:47:07;;;;;;;11.55;2.42;;;26.00;99.90;;;;;;5073228;28;20200;-81
2023/12/15 09:49:39;;;;;;;8.15;2.30;;;25.80;99.90;;;;;;5073871;28;20290;-80
2023/12/15 09:52:14;;;;;;;9.25;2.03;;;25.70;99.90;;;;;;5069547;28;20195;-80
2023/12/15 09:54:45;;;;;;;8.93;2.00;;;25.70;99.90;;;;;;5070280;28;20234;-80
2023/12/15 09:57:18;;;;;;;8.90;2.45;;;25.80;99.90;;;;;;5074552;28;20562;-81
2023/12/15 09:59:49;;;;;;;12.10;2.35;;;25.80;99.90;;;;;;5074613;28;20286;-81
2023/12/15 10:02:20;;;;;;;12.60;2.50;;;25.80;99.90;;;;;;5083155;28;20243;-79
2023/12/15 10:04:51;;;;;;;9.85;2.15;;;25.70;99.90;;;;;;5067574;28;20224;-81
2023/12/15 10:07:22;;;;;;;8.02;2.00;;;25.70;99.90;;;;;;5078494;28;20279;-81
2023/12/15 10:09:53;;;;;;;8.50;2.03;;;25.60;99.90;;;;;;5067390;28;20263;-82
2023/12/15 10:12:25;;;;;;;7.75;2.13;;;25.70;99.90;;;;;;5076240;28;20287;-81
2023/12/15 10:14:58;;;;;;;9.52;2.15;;;25.70;99.90;;;;;;5072542;28;20199;-80
2023/12/15 10:17:29;;;;;;;10.45;2.40;;;25.60;99.90;;;;;;5067585;28;20304;-80
2023/12/15 10:20:09;;;;;;;10.55;2.10;;;25.70;99.90;;;;;;5071783;28;20248;-81
2023/12/15 10:22:40;;;;;;;11.52;2.53;;;25.70;99.90;;;;;;5053003;28;20204;-81
2023/12/15 10:25:22;;;;;;;9.13;2.10;;;25.70;99.90;;;;;;5067139;28;20230;-80
2023/12/15 10:27:55;;;;;;;9.65;2.20;;;25.60;99.90;;;;;;5053272;28;20292;-81
2023/12/15 10:30:26;;;;;;;9.05;1.90;;;25.60;99.90;;;;;;5064466;28;20199;-81
2023/12/15 10:33:01;;;;;;;11.45;2.08;;;25.60;99.90;;;;;;5068601;28;20275;-78
2023/12/15 10:35:33;;;;;;;9.57;2.38;;;25.60;99.90;;;;;;5072834;28;20227;-81
2023/12/15 10:38:04;;;;;;;8.50;2.22;;;25.60;99.90;;;;;;5075250;28;20283;-81
2023/12/15 10:40:35;;;;;;;8.10;2.13;;;25.50;99.90;;;;;;5054479;28;20221;-81
2023/12/15 10:43:09;;;;;;;10.90;2.63;;;25.50;99.90;;;;;;5064663;28;20290;-81
2023/12/15 10:45:40;;;;;;;7.13;1.70;;;25.40;99.90;;;;;;5052713;28;20289;-81
2023/12/15 10:48:13;;;;;;;8.10;1.92;;;25.40;99.90;;;;;;5061517;28;20275;-80
2023/12/15 10:50:46;;;;;;;8.57;1.98;;;25.40;99.90;;;;;;5072568;28;20192;-81
2023/12/15 10:53:18;;;;;;;12.38;2.30;;;25.40;99.90;;;;;;5078900;28;20216;-79
2023/12/15 10:55:50;;;;;;;6.30;1.80;;;25.40;99.90;;;;;;5072857;28;20710;-80
2023/12/15 10:58:24;;;;;;;8.77;2.38;;;25.40;99.90;;;;;;5070851;28;20204;-80
2023/12/15 11:00:56;;;;;;;11.88;2.15;;;25.50;99.90;;;;;;5084539;28;20192;-79
2023/12/15 11:03:28;;;;;;;10.43;2.17;;;25.50;99.90;;;;;;5066858;28;20200;-80
2023/12/15 11:06:01;;;;;;;7.80;1.90;;;25.50;99.90;;;;;;5066921;28;20728;-79
2023/12/15 11:08:32;;;;;;;8.55;2.08;;;25.50;99.90;;;;;;5059190;28;20203;-81
2023/12/15 11:11:07;;;;;;;9.23;2.00;;;25.50;99.90;;;;;;5081684;28;20757;-80
2023/12/15 11:13:59;;;;;;;11.13;2.33;;;25.60;99.90;;;;;;5072289;28;20231;-81
2023/12/15 11:16:32;;;;;;;6.78;1.85;;;25.50;99.90;;;;;;5063651;28;20216;-81
2023/12/15 11:19:03;;;;;;;7.93;1.77;;;25.50;99.90;;;;;;5063367;28;21017;-81
2023/12/15 11:21:34;;;;;;;10.50;2.28;;;25.40;99.90;;;;;;5070497;28;20199;-81
2023/12/15 11:24:07;;;;;;;8.43;2.28;;;25.40;99.90;;;;;;5062257;28;20282;-82
2023/12/15 11:26:39;;;;;;;8.23;2.13;;;25.40;99.90;;;;;;5057700;28;20227;-81
2023/12/15 11:29:15;;;;;;;7.35;1.80;;;25.40;99.90;;;;;;5051659;28;20239;-81
2023/12/15 11:31:46;;;;;;;7.72;1.90;;;25.40;99.90;;;;;;5053055;28;20214;-81
2023/12/15 11:34:41;;;;;;;8.98;2.10;;;25.40;99.90;;;;;;5059979;28;20212;-80
2023/12/15 11:37:12;;;;;;;9.15;2.25;;;25.30;99.90;;;;;;5064832;28;20201;-81
2023/12/15 11:39:44;;;;;;;9.02;1.85;;;25.30;99.90;;;;;;5056472;28;20205;-81
2023/12/15 11:42:16;;;;;;;9.15;1.90;;;25.40;99.90;;;;;;5052101;28;20196;-81
2023/12/15 11:44:49;;;;;;;6.15;1.73;;;25.30;99.90;;;;;;5064315;28;20228;-81
2023/12/15 11:47:20;;;;;;;8.60;1.83;;;25.30;99.90;;;;;;5065438;28;20216;-80
2023/12/15 11:49:52;;;;;;;8.05;2.17;;;25.30;99.90;;;;;;5070186;28;20745;-79
2023/12/15 11:52:23;;;;;;;11.32;2.22;;;25.30;99.90;;;;;;5051551;28;24219;-80
2023/12/15 11:54:57;;;;;;;8.50;2.15;;;25.30;99.90;;;;;;5066977;28;20196;-78
2023/12/15 11:57:28;;;;;;;8.55;2.28;;;25.30;99.90;;;;;;5078216;28;20242;-80
2023/12/15 12:00:00;;;;;;;10.82;2.47;;;25.30;99.90;;;;;;5068647;28;20609;-80
2023/12/15 12:02:33;;;;;;;12.00;2.20;;;25.30;99.90;;;;;;5073106;28;20559;-80
2023/12/15 12:05:03;;;;;;;8.02;1.77;;;25.30;99.90;;;;;;5070730;28;20228;-80
2023/12/15 12:07:36;;;;;;;8.82;2.00;;;25.20;99.90;;;;;;5070425;28;20196;-81
2023/12/15 12:10:10;;;;;;;6.13;1.83;;;25.20;99.90;;;;;;5066545;28;20200;-80
2023/12/15 12:12:42;;;;;;;9.80;2.00;;;25.20;99.90;;;;;;5067860;28;20237;-79
2023/12/15 12:15:15;;;;;;;9.60;1.92;;;25.20;99.90;;;;;;5070889;28;20299;-80
2023/12/15 12:17:46;;;;;;;7.32;1.90;;;25.20;99.90;;;;;;5072836;28;20314;-81
2023/12/15 12:20:17;;;;;;;8.88;2.05;;;25.20;99.90;;;;;;5080567;28;20207;-82
2023/12/15 12:22:49;;;;;;;8.18;2.00;;;25.10;99.90;;;;;;5062596;28;20808;-82
2023/12/15 12:25:20;;;;;;;8.57;1.90;;;25.10;99.90;;;;;;5069766;28;20234;-82
2023/12/15 12:27:53;;;;;;;6.75;2.05;;;25.10;99.90;;;;;;5071488;28;20200;-82
2023/12/15 12:30:26;;;;;;;10.68;2.15;;;25.10;99.90;;;;;;5077249;28;20279;-81
2023/12/15 12:32:56;;;;;;;7.30;1.88;;;25.10;99.90;;;;;;5081999;28;20209;-79
2023/12/15 12:35:27;;;;;;;9.65;1.80;;;25.10;99.90;;;;;;5095391;28;20271;-81
2023/12/15 12:37:59;;;;;;;9.45;2.13;;;25.20;99.90;;;;;;5087831;28;20219;-81
2023/12/15 12:40:29;;;;;;;8.35;1.98;;;25.10;99.90;;;;;;5075070;28;20196;-81
2023/12/15 12:43:01;;;;;;;11.00;1.95;;;25.10;99.90;;;;;;5058693;28;20547;-82
2023/12/15 12:45:34;;;;;;;13.25;2.58;;;25.10;99.90;;;;;;5051546;28;20580;-81
2023/12/15 12:48:04;;;;;;;9.90;2.38;;;25.10;99.90;;;;;;5061176;28;20199;-82
2023/12/15 12:50:36;;;;;;;11.50;2.40;;;25.10;99.90;;;;;;5063409;28;20278;-82
2023/12/15 12:53:07;;;;;;;8.77;1.90;;;25.10;99.90;;;;;;5090754;28;20203;-82
2023/12/15 12:55:37;;;;;;;8.88;1.98;;;25.00;99.90;;;;;;5048960;28;20291;-81
2023/12/15 12:58:08;;;;;;;10.60;2.03;;;25.00;99.90;;;;;;5070031;28;20189;-77
2023/12/15 13:00:41;;;;;;;9.40;2.20;;;25.00;99.90;;;;;;5077258;28;20226;-82
2023/12/15 13:03:13;;;;;;;7.75;1.65;;;24.90;99.90;;;;;;5069256;28;20195;-82
2023/12/15 13:05:44;;;;;;;7.43;2.03;;;24.90;99.90;;;;;;5065304;28;20282;-81
2023/12/15 13:08:15;;;;;;;9.73;2.15;;;24.90;99.90;;;;;;5070052;28;20714;-82